Terminal Aerodrome Forecast
Issued by NWS

Home | Current Version | Previous Version | Graphics & Text | Print | Product List | Glossary On
Versions: 1 2 3 4 5 6 7 8 9 10 11 12 13 14 15 16 17 18 19 20 21 22 23 24 25 26 27 28
000
FTUS43 KLOT 282059 AAB
TAFGYY
TAF AMD
KGYY 282059Z 2821/2918 06008KT P6SM -SHRA VCTS SCT030 BKN060CB
      BKN250
     FM282200 06008KT P6SM SCT030 BKN120 BKN250
     FM290400 VRB03KT 3SM BR FEW005 SCT250
     FM291400 09007KT P6SM SCT030 SCT250=

USA.gov is the U.S. government's official web portal to all federal, state and local government web resources and services.